9CO2 weather

Van Slyke Field
Watkins, Colorado, United States

Public forecast

Using degrees Fahrenheit for public forecast. Weather courtesy of forecast.io.

METAR (pilot weather report)

Closest report is Front Range Airport, 6.2 nm (11.5 km) NNW. Retrieved 2019/04/18 22:47 UTC (1 hour ago):

KFTG 182247Z 35018G29KT 10SM SCT110 18/M04 A3015

TAF (pilot weather forecast)

Forecast is more than 6 hours old.

Closest forecast is Buckley Air Force Base, 12.8 nm (23.6 km) W. Retrieved 2019/04/18 17:06 UTC (7 hours ago):

TAF TAF KBKF 181704Z 1817/1923 02012KT 9999 SCT030 BKN060 QNH3018INS BECMG 1818/1819 01012G18KT 9999 BKN100 QNH3017INS TEMPO 1819/1901 01015G25KT 520009 BECMG 1903/1904 VRB06KT 9999 SCT060 QNH3021INS BECMG 1911/1912 33009KT 9999 FEW180 QNH3010INS TX13/1821Z TN03/1912Z